AAL3016 KCVG-KPHX
Flight info
| Callsign | AAL3016 |
|---|---|
| Flight time | N/A |
| Altitude | 34000 |
| Route | LOVEY8 HELIS SPI J80 MCI J24 JUDGE/N0458F360 J24 SLN J96 GCK CIM J134 GUP EAGUL6 |
| Aircraft | A320/M-SDE3FGHIRWY/LB1 |
Departure
| Time | 2026-05-07 11:49 |
|---|---|
| Airport | Cincinnati Northern Kentucky International Airport (KCVG) |
Arrival
| Time | N/A |
|---|---|
| Airport | Phoenix Sky Harbor International Airport (KPHX) |
| Time | Latitude | Longitude | Altitude | Speed | Heading |
|---|---|---|---|---|---|
| 2026-05-07 11:24 | 39.05088 | -84.65371 | 879 ft | 0 kts | 180° |
| 2026-05-07 11:37 | 39.05094 | -84.65371 | 878 ft | 3 kts | 179° |
| 2026-05-07 11:37 | 39.05116 | -84.65372 | 878 ft | 3 kts | 172° |
| 2026-05-07 11:37 | 39.05137 | -84.65378 | 878 ft | 3 kts | 154° |
| 2026-05-07 11:37 | 39.05153 | -84.65393 | 878 ft | 3 kts | 107° |
| 2026-05-07 11:38 | 39.05155 | -84.65402 | 878 ft | 1 kts | 90° |
| 2026-05-07 11:42 | 39.05155 | -84.65398 | 878 ft | 2 kts | 90° |
| 2026-05-07 11:42 | 39.05155 | -84.65370 | 878 ft | 5 kts | 90° |
| 2026-05-07 11:42 | 39.05155 | -84.65313 | 878 ft | 8 kts | 90° |
| 2026-05-07 11:43 | 39.05155 | -84.65228 | 878 ft | 11 kts | 90° |
| 2026-05-07 11:43 | 39.05155 | -84.65120 | 878 ft | 13 kts | 90° |
| 2026-05-07 11:43 | 39.05154 | -84.65016 | 879 ft | 11 kts | 90° |
| 2026-05-07 11:43 | 39.05100 | -84.64987 | 879 ft | 11 kts | 185° |
| 2026-05-07 11:44 | 39.05022 | -84.64989 | 879 ft | 12 kts | 180° |
| 2026-05-07 11:44 | 39.04933 | -84.64989 | 879 ft | 14 kts | 180° |
| 2026-05-07 11:44 | 39.04842 | -84.64989 | 879 ft | 11 kts | 180° |
| 2026-05-07 11:44 | 39.04810 | -84.65062 | 879 ft | 11 kts | 269° |
| 2026-05-07 11:45 | 39.04809 | -84.65170 | 879 ft | 13 kts | 270° |
| 2026-05-07 11:45 | 39.04809 | -84.65279 | 879 ft | 8 kts | 269° |
| 2026-05-07 11:45 | 39.04763 | -84.65300 | 880 ft | 8 kts | 180° |
| 2026-05-07 11:45 | 39.04710 | -84.65300 | 882 ft | 7 kts | 179° |
| 2026-05-07 11:46 | 39.04666 | -84.65300 | 883 ft | 6 kts | 180° |
| 2026-05-07 11:46 | 39.04629 | -84.65313 | 883 ft | 6 kts | 231° |
| 2026-05-07 11:46 | 39.04626 | -84.65358 | 883 ft | 0 kts | 271° |
| 2026-05-07 11:48 | 39.04626 | -84.65359 | 883 ft | 1 kts | 271° |
| 2026-05-07 11:48 | 39.04626 | -84.65457 | 883 ft | 35 kts | 270° |
| 2026-05-07 11:48 | 39.04627 | -84.66064 | 881 ft | 97 kts | 270° |
| 2026-05-07 11:48 | 39.04631 | -84.67140 | 883 ft | 143 kts | 270° |
| 2026-05-07 11:49 | 39.04629 | -84.68567 | 1049 ft | 164 kts | 272° |
| 2026-05-07 11:49 | 39.04628 | -84.70005 | 1711 ft | 159 kts | 274° |
| 2026-05-07 11:49 | 39.04635 | -84.71420 | 2324 ft | 158 kts | 275° |
| 2026-05-07 11:49 | 39.04628 | -84.72839 | 2773 ft | 165 kts | 274° |
| 2026-05-07 11:50 | 39.04623 | -84.74415 | 2918 ft | 187 kts | 274° |
| 2026-05-07 11:50 | 39.04626 | -84.76188 | 3133 ft | 208 kts | 273° |
| 2026-05-07 11:50 | 39.04626 | -84.78148 | 3426 ft | 231 kts | 273° |
| 2026-05-07 11:50 | 39.04624 | -84.80296 | 3864 ft | 247 kts | 272° |
| 2026-05-07 11:51 | 39.04617 | -84.82535 | 4665 ft | 252 kts | 271° |
| 2026-05-07 11:51 | 39.04608 | -84.84799 | 5488 ft | 254 kts | 271° |
| 2026-05-07 11:51 | 39.04603 | -84.87082 | 6312 ft | 256 kts | 271° |
| 2026-05-07 11:51 | 39.04612 | -84.89385 | 7083 ft | 258 kts | 271° |
| 2026-05-07 11:52 | 39.04629 | -84.91705 | 7856 ft | 260 kts | 271° |
| 2026-05-07 11:52 | 39.04675 | -84.94038 | 8637 ft | 262 kts | 276° |
| 2026-05-07 11:52 | 39.05084 | -84.96319 | 9411 ft | 264 kts | 289° |
| 2026-05-07 11:52 | 39.05767 | -84.98528 | 10138 ft | 267 kts | 290° |
| 2026-05-07 11:53 | 39.06475 | -85.00823 | 10393 ft | 287 kts | 290° |
| 2026-05-07 11:53 | 39.07238 | -85.03299 | 10516 ft | 308 kts | 291° |
| 2026-05-07 11:53 | 39.08130 | -85.05889 | 10838 ft | 322 kts | 293° |
| 2026-05-07 11:53 | 39.09112 | -85.08502 | 11434 ft | 326 kts | 294° |
| 2026-05-07 11:54 | 39.10126 | -85.11114 | 12065 ft | 328 kts | 294° |
| 2026-05-07 11:54 | 39.11152 | -85.13750 | 12715 ft | 330 kts | 294° |
| 2026-05-07 11:54 | 39.12177 | -85.16400 | 13372 ft | 332 kts | 294° |
| 2026-05-07 11:54 | 39.13200 | -85.19071 | 14017 ft | 333 kts | 294° |
| 2026-05-07 11:55 | 39.14216 | -85.21752 | 14645 ft | 333 kts | 292° |
| 2026-05-07 11:55 | 39.15228 | -85.24437 | 15265 ft | 333 kts | 292° |
| 2026-05-07 11:55 | 39.16236 | -85.27121 | 15904 ft | 332 kts | 291° |
| 2026-05-07 11:55 | 39.17238 | -85.29795 | 16550 ft | 331 kts | 291° |
| 2026-05-07 11:56 | 39.18236 | -85.32468 | 17207 ft | 331 kts | 290° |
| 2026-05-07 11:56 | 39.19231 | -85.35136 | 17884 ft | 330 kts | 289° |
| 2026-05-07 11:56 | 39.20223 | -85.37804 | 18524 ft | 330 kts | 289° |
| 2026-05-07 11:56 | 39.21255 | -85.40458 | 19081 ft | 334 kts | 294° |
| 2026-05-07 11:57 | 39.22652 | -85.42914 | 19603 ft | 344 kts | 301° |
| 2026-05-07 11:57 | 39.24179 | -85.45302 | 20126 ft | 346 kts | 300° |
| 2026-05-07 11:57 | 39.25713 | -85.47709 | 20632 ft | 348 kts | 300° |
| 2026-05-07 11:57 | 39.27256 | -85.50138 | 21115 ft | 351 kts | 300° |
| 2026-05-07 11:58 | 39.28803 | -85.52576 | 21580 ft | 353 kts | 300° |
| 2026-05-07 11:58 | 39.30360 | -85.55031 | 22028 ft | 355 kts | 300° |
| 2026-05-07 11:58 | 39.31931 | -85.57510 | 22471 ft | 357 kts | 300° |
| 2026-05-07 11:58 | 39.33509 | -85.60001 | 22913 ft | 359 kts | 299° |
| 2026-05-07 11:59 | 39.35091 | -85.62506 | 23352 ft | 361 kts | 299° |
| 2026-05-07 11:59 | 39.36685 | -85.65033 | 23757 ft | 363 kts | 299° |
| 2026-05-07 11:59 | 39.38283 | -85.67569 | 24123 ft | 365 kts | 299° |
| 2026-05-07 11:59 | 39.39887 | -85.70113 | 24470 ft | 366 kts | 298° |
| 2026-05-07 12:00 | 39.41494 | -85.72664 | 24823 ft | 366 kts | 298° |
| 2026-05-07 12:00 | 39.43110 | -85.75227 | 25193 ft | 367 kts | 298° |
| 2026-05-07 12:00 | 39.44724 | -85.77788 | 25547 ft | 368 kts | 298° |
| 2026-05-07 12:00 | 39.46343 | -85.80362 | 25878 ft | 369 kts | 298° |
| 2026-05-07 12:01 | 39.47971 | -85.82951 | 26221 ft | 371 kts | 298° |
| 2026-05-07 12:01 | 39.49599 | -85.85544 | 26565 ft | 372 kts | 298° |
| 2026-05-07 12:01 | 39.51228 | -85.88154 | 26889 ft | 371 kts | 296° |
| 2026-05-07 12:01 | 39.52553 | -85.90944 | 27215 ft | 359 kts | 286° |
| 2026-05-07 12:02 | 39.53391 | -85.93946 | 27581 ft | 349 kts | 277° |
| 2026-05-07 12:02 | 39.53749 | -85.97009 | 28057 ft | 340 kts | 268° |
| 2026-05-07 12:02 | 39.53866 | -86.00055 | 28538 ft | 338 kts | 268° |
| 2026-05-07 12:02 | 39.53986 | -86.03091 | 29030 ft | 336 kts | 268° |
| 2026-05-07 12:03 | 39.54107 | -86.06103 | 29506 ft | 334 kts | 268° |
| 2026-05-07 12:03 | 39.54227 | -86.09098 | 29989 ft | 332 kts | 268° |
| 2026-05-07 12:03 | 39.54345 | -86.12074 | 30414 ft | 330 kts | 268° |
| 2026-05-07 12:03 | 39.54458 | -86.15032 | 30830 ft | 327 kts | 268° |
| 2026-05-07 12:04 | 39.54571 | -86.17963 | 31270 ft | 324 kts | 268° |
| 2026-05-07 12:04 | 39.54683 | -86.20861 | 31718 ft | 321 kts | 268° |
| 2026-05-07 12:04 | 39.54792 | -86.23732 | 32171 ft | 317 kts | 268° |
| 2026-05-07 12:04 | 39.54899 | -86.26573 | 32622 ft | 314 kts | 267° |
| 2026-05-07 12:05 | 39.55004 | -86.29380 | 33086 ft | 311 kts | 267° |
| 2026-05-07 12:05 | 39.55108 | -86.32162 | 33541 ft | 307 kts | 267° |
| 2026-05-07 12:05 | 39.55208 | -86.34917 | 33978 ft | 305 kts | 267° |
| 2026-05-07 12:06 | 39.55403 | -86.40442 | 34089 ft | 312 kts | 267° |
| 2026-05-07 12:06 | 39.55601 | -86.46171 | 34089 ft | 322 kts | 267° |
| 2026-05-07 12:07 | 39.55812 | -86.51983 | 34086 ft | 324 kts | 267° |
| 2026-05-07 12:07 | 39.56016 | -86.57830 | 34094 ft | 325 kts | 267° |
| 2026-05-07 12:08 | 39.56216 | -86.63691 | 34102 ft | 327 kts | 267° |
| 2026-05-07 12:08 | 39.56389 | -86.68630 | 34103 ft | 327 kts | 267° |
| 2026-05-07 12:09 | 39.56591 | -86.74526 | 34102 ft | 328 kts | 267° |
| 2026-05-07 12:09 | 39.56789 | -86.80451 | 34101 ft | 330 kts | 267° |
| 2026-05-07 12:10 | 39.56978 | -86.86395 | 34100 ft | 331 kts | 267° |
| 2026-05-07 12:10 | 39.57165 | -86.92363 | 34101 ft | 332 kts | 268° |
| 2026-05-07 12:11 | 39.57356 | -86.98356 | 34096 ft | 333 kts | 268° |
| 2026-05-07 12:11 | 39.57551 | -87.04368 | 34097 ft | 335 kts | 268° |
| 2026-05-07 12:12 | 39.57736 | -87.10412 | 34100 ft | 336 kts | 268° |
| 2026-05-07 12:12 | 39.57921 | -87.16469 | 34103 ft | 337 kts | 268° |
| 2026-05-07 12:13 | 39.58100 | -87.22552 | 34106 ft | 338 kts | 268° |
| 2026-05-07 12:13 | 39.58271 | -87.28652 | 34105 ft | 339 kts | 268° |
| 2026-05-07 12:14 | 39.58460 | -87.34759 | 34101 ft | 341 kts | 270° |
| 2026-05-07 12:14 | 39.59133 | -87.40881 | 34106 ft | 344 kts | 272° |
| 2026-05-07 12:15 | 39.59816 | -87.47023 | 34104 ft | 344 kts | 272° |
| 2026-05-07 12:15 | 39.60489 | -87.53183 | 34107 ft | 345 kts | 272° |
| 2026-05-07 12:16 | 39.61166 | -87.59357 | 34109 ft | 346 kts | 272° |
| 2026-05-07 12:16 | 39.61841 | -87.65548 | 34107 ft | 347 kts | 272° |
| 2026-05-07 12:17 | 39.62518 | -87.71758 | 34111 ft | 348 kts | 273° |
| 2026-05-07 12:17 | 39.63192 | -87.77977 | 34110 ft | 349 kts | 273° |
| 2026-05-07 12:18 | 39.63868 | -87.84215 | 34106 ft | 349 kts | 273° |
| 2026-05-07 12:18 | 39.64538 | -87.90464 | 34102 ft | 350 kts | 273° |
| 2026-05-07 12:19 | 39.65204 | -87.96727 | 34099 ft | 351 kts | 273° |
| 2026-05-07 12:19 | 39.65870 | -88.03000 | 34095 ft | 351 kts | 273° |
| 2026-05-07 12:20 | 39.66534 | -88.09293 | 34092 ft | 352 kts | 273° |
| 2026-05-07 12:20 | 39.67200 | -88.15600 | 34098 ft | 353 kts | 273° |
| 2026-05-07 12:21 | 39.67860 | -88.21919 | 34098 ft | 354 kts | 273° |
| 2026-05-07 12:21 | 39.68516 | -88.28255 | 34094 ft | 354 kts | 273° |
| 2026-05-07 12:22 | 39.69176 | -88.34600 | 34100 ft | 355 kts | 273° |
| 2026-05-07 12:22 | 39.69823 | -88.40917 | 34096 ft | 356 kts | 273° |
| 2026-05-07 12:23 | 39.70480 | -88.47335 | 34096 ft | 356 kts | 273° |
| 2026-05-07 12:23 | 39.71127 | -88.53681 | 34095 ft | 357 kts | 273° |
| 2026-05-07 12:24 | 39.71779 | -88.60131 | 34101 ft | 358 kts | 274° |
| 2026-05-07 12:24 | 39.72423 | -88.66553 | 34101 ft | 359 kts | 274° |
| 2026-05-07 12:25 | 39.73056 | -88.72949 | 34101 ft | 359 kts | 274° |
| 2026-05-07 12:25 | 39.73696 | -88.79396 | 34102 ft | 360 kts | 274° |
| 2026-05-07 12:26 | 39.74331 | -88.85854 | 34099 ft | 361 kts | 274° |
| 2026-05-07 12:26 | 39.75029 | -88.92319 | 34101 ft | 362 kts | 275° |
| 2026-05-07 12:27 | 39.75845 | -88.98822 | 34104 ft | 363 kts | 275° |
| 2026-05-07 12:27 | 39.76654 | -89.05260 | 34106 ft | 363 kts | 275° |
| 2026-05-07 12:28 | 39.77446 | -89.11799 | 34106 ft | 364 kts | 275° |
| 2026-05-07 12:28 | 39.78212 | -89.18294 | 34109 ft | 364 kts | 275° |
| 2026-05-07 12:29 | 39.78982 | -89.24808 | 34117 ft | 364 kts | 275° |
| 2026-05-07 12:29 | 39.79747 | -89.31315 | 34118 ft | 364 kts | 275° |
| 2026-05-07 12:30 | 39.80513 | -89.37828 | 34108 ft | 364 kts | 275° |
| 2026-05-07 12:30 | 39.81276 | -89.44348 | 34110 ft | 364 kts | 275° |
| 2026-05-07 12:31 | 39.82034 | -89.50855 | 34111 ft | 364 kts | 275° |
| 2026-05-07 12:31 | 39.82786 | -89.57375 | 34109 ft | 364 kts | 275° |
| 2026-05-07 12:32 | 39.83530 | -89.63902 | 34105 ft | 365 kts | 275° |
| 2026-05-07 12:32 | 39.83749 | -89.70442 | 34102 ft | 362 kts | 263° |
| 2026-05-07 12:33 | 39.82881 | -89.80210 | 34099 ft | 363 kts | 264° |
| 2026-05-07 12:33 | 39.82306 | -89.86729 | 34095 ft | 363 kts | 264° |
| 2026-05-07 12:34 | 39.81726 | -89.93253 | 34094 ft | 363 kts | 263° |
| 2026-05-07 12:34 | 39.81139 | -89.99780 | 34102 ft | 363 kts | 263° |
| 2026-05-07 12:35 | 39.80554 | -90.06308 | 34107 ft | 364 kts | 264° |
| 2026-05-07 12:35 | 39.79962 | -90.12838 | 34109 ft | 364 kts | 264° |
| 2026-05-07 12:36 | 39.79370 | -90.19371 | 34108 ft | 364 kts | 263° |
| 2026-05-07 12:36 | 39.78766 | -90.25907 | 34108 ft | 364 kts | 263° |
| 2026-05-07 12:37 | 39.78161 | -90.32455 | 34111 ft | 365 kts | 264° |
| 2026-05-07 12:37 | 39.77553 | -90.38997 | 34105 ft | 365 kts | 264° |
| 2026-05-07 12:38 | 39.76937 | -90.45544 | 34105 ft | 365 kts | 263° |
| 2026-05-07 12:38 | 39.76319 | -90.52096 | 34099 ft | 365 kts | 264° |
| 2026-05-07 12:39 | 39.75698 | -90.58650 | 34104 ft | 366 kts | 264° |
| 2026-05-07 12:39 | 39.75072 | -90.65211 | 34105 ft | 366 kts | 264° |
| 2026-05-07 12:40 | 39.74442 | -90.71773 | 34109 ft | 367 kts | 264° |
| 2026-05-07 12:40 | 39.73810 | -90.78355 | 34113 ft | 367 kts | 264° |
| 2026-05-07 12:41 | 39.73172 | -90.84942 | 34112 ft | 367 kts | 264° |
| 2026-05-07 12:41 | 39.72528 | -90.91530 | 34110 ft | 368 kts | 264° |
| 2026-05-07 12:42 | 39.72203 | -90.94820 | 34301 ft | 368 kts | 264° |
| 2026-05-07 12:42 | 39.71878 | -90.98122 | 34320 ft | 368 kts | 264° |
| 2026-05-07 12:42 | 39.71219 | -91.04715 | 34312 ft | 368 kts | 264° |
| 2026-05-07 12:43 | 39.70561 | -91.11317 | 34314 ft | 369 kts | 264° |
| 2026-05-07 12:43 | 39.69901 | -91.17922 | 34316 ft | 369 kts | 264° |
| 2026-05-07 12:44 | 39.69236 | -91.24531 | 34279 ft | 369 kts | 264° |
| 2026-05-07 12:44 | 39.68904 | -91.27840 | 34104 ft | 370 kts | 264° |
| 2026-05-07 12:44 | 39.68570 | -91.31149 | 34101 ft | 370 kts | 264° |
| 2026-05-07 12:45 | 39.68013 | -91.36651 | 34108 ft | 370 kts | 264° |
| 2026-05-07 12:45 | 39.67341 | -91.43272 | 34104 ft | 370 kts | 264° |
| 2026-05-07 12:46 | 39.66664 | -91.49902 | 34104 ft | 371 kts | 264° |
| 2026-05-07 12:46 | 39.65981 | -91.56534 | 34102 ft | 371 kts | 264° |
| 2026-05-07 12:47 | 39.65281 | -91.63214 | 34096 ft | 371 kts | 264° |
| 2026-05-07 12:47 | 39.64579 | -91.69850 | 34093 ft | 371 kts | 264° |
| 2026-05-07 12:48 | 39.63885 | -91.76457 | 34087 ft | 372 kts | 264° |
| 2026-05-07 12:48 | 39.63180 | -91.83145 | 34083 ft | 372 kts | 264° |
| 2026-05-07 12:49 | 39.62468 | -91.89797 | 34081 ft | 372 kts | 264° |
| 2026-05-07 12:49 | 39.61760 | -91.96411 | 34080 ft | 373 kts | 264° |
| 2026-05-07 12:50 | 39.61047 | -92.03069 | 34083 ft | 373 kts | 264° |
| 2026-05-07 12:50 | 39.60327 | -92.09739 | 34088 ft | 373 kts | 264° |
| 2026-05-07 12:51 | 39.59605 | -92.16411 | 34089 ft | 374 kts | 264° |
| 2026-05-07 12:51 | 39.58872 | -92.23094 | 34091 ft | 374 kts | 264° |
| 2026-05-07 12:52 | 39.58132 | -92.29779 | 34090 ft | 375 kts | 264° |
| 2026-05-07 12:52 | 39.57393 | -92.36473 | 34092 ft | 375 kts | 264° |
| 2026-05-07 12:53 | 39.56648 | -92.43165 | 34093 ft | 376 kts | 264° |
| 2026-05-07 12:53 | 39.55900 | -92.49870 | 34093 ft | 376 kts | 264° |
| 2026-05-07 12:54 | 39.55145 | -92.56582 | 34094 ft | 377 kts | 264° |
| 2026-05-07 12:54 | 39.54385 | -92.63303 | 34099 ft | 377 kts | 264° |
| 2026-05-07 12:55 | 39.53621 | -92.70031 | 34095 ft | 378 kts | 264° |
| 2026-05-07 12:55 | 39.52850 | -92.76758 | 34102 ft | 378 kts | 264° |
| 2026-05-07 12:56 | 39.52078 | -92.83507 | 34097 ft | 378 kts | 264° |
| 2026-05-07 12:56 | 39.51299 | -92.90241 | 34098 ft | 379 kts | 264° |
| 2026-05-07 12:57 | 39.50509 | -92.96998 | 34098 ft | 379 kts | 264° |
| 2026-05-07 12:57 | 39.49721 | -93.03753 | 34096 ft | 379 kts | 264° |
| 2026-05-07 12:58 | 39.48930 | -93.10512 | 34096 ft | 380 kts | 264° |
| 2026-05-07 12:58 | 39.48135 | -93.17274 | 34098 ft | 380 kts | 264° |
| 2026-05-07 12:59 | 39.47336 | -93.24040 | 34095 ft | 381 kts | 264° |
| 2026-05-07 12:59 | 39.46525 | -93.30814 | 34095 ft | 381 kts | 264° |
| 2026-05-07 13:00 | 39.45714 | -93.37594 | 34097 ft | 382 kts | 264° |
| 2026-05-07 13:00 | 39.44895 | -93.44382 | 34096 ft | 382 kts | 265° |
| 2026-05-07 13:01 | 39.44076 | -93.51170 | 34097 ft | 382 kts | 265° |
| 2026-05-07 13:01 | 39.43251 | -93.57963 | 34103 ft | 382 kts | 265° |
| 2026-05-07 13:02 | 39.42419 | -93.64762 | 34101 ft | 383 kts | 265° |
| 2026-05-07 13:02 | 39.41583 | -93.71572 | 34098 ft | 383 kts | 265° |
| 2026-05-07 13:03 | 39.40739 | -93.78381 | 34101 ft | 384 kts | 265° |
| 2026-05-07 13:03 | 39.39894 | -93.85203 | 34108 ft | 384 kts | 265° |
| 2026-05-07 13:04 | 39.39045 | -93.92033 | 34105 ft | 385 kts | 265° |
| 2026-05-07 13:04 | 39.38188 | -93.98855 | 34105 ft | 385 kts | 265° |
| 2026-05-07 13:05 | 39.37329 | -94.05681 | 34104 ft | 385 kts | 265° |
| 2026-05-07 13:05 | 39.36467 | -94.12505 | 34106 ft | 385 kts | 265° |
| 2026-05-07 13:06 | 39.35602 | -94.19334 | 34102 ft | 385 kts | 265° |
| 2026-05-07 13:06 | 39.34729 | -94.26156 | 34104 ft | 385 kts | 265° |
| 2026-05-07 13:07 | 39.33851 | -94.32986 | 34101 ft | 385 kts | 265° |
| 2026-05-07 13:07 | 39.32967 | -94.39821 | 34097 ft | 386 kts | 265° |
| 2026-05-07 13:08 | 39.32083 | -94.46658 | 34094 ft | 386 kts | 265° |
| 2026-05-07 13:08 | 39.31191 | -94.53504 | 34073 ft | 387 kts | 265° |
| 2026-05-07 13:09 | 39.30290 | -94.60353 | 34075 ft | 387 kts | 264° |
| 2026-05-07 13:09 | 39.29374 | -94.67203 | 34073 ft | 387 kts | 264° |
| 2026-05-07 13:10 | 39.28470 | -94.74060 | 34074 ft | 388 kts | 265° |
| 2026-05-07 13:10 | 39.27664 | -94.80932 | 34073 ft | 387 kts | 266° |
| 2026-05-07 13:11 | 39.26931 | -94.87818 | 34077 ft | 387 kts | 266° |
| 2026-05-07 13:11 | 39.26177 | -94.94699 | 34075 ft | 388 kts | 266° |
| 2026-05-07 13:12 | 39.25387 | -95.01583 | 34080 ft | 388 kts | 265° |
| 2026-05-07 13:12 | 39.24584 | -95.08475 | 34092 ft | 388 kts | 265° |
| 2026-05-07 13:13 | 39.23784 | -95.15368 | 34093 ft | 389 kts | 265° |
| 2026-05-07 13:13 | 39.22988 | -95.22271 | 34093 ft | 389 kts | 265° |
| 2026-05-07 13:14 | 39.22188 | -95.29178 | 34094 ft | 389 kts | 265° |
| 2026-05-07 13:14 | 39.21384 | -95.36085 | 34100 ft | 390 kts | 265° |
| 2026-05-07 13:15 | 39.20565 | -95.42997 | 34089 ft | 390 kts | 265° |
| 2026-05-07 13:15 | 39.19745 | -95.49912 | 34090 ft | 390 kts | 265° |
| 2026-05-07 13:16 | 39.18921 | -95.56837 | 34092 ft | 391 kts | 265° |
| 2026-05-07 13:16 | 39.18093 | -95.63755 | 34101 ft | 391 kts | 264° |
| 2026-05-07 13:17 | 39.17253 | -95.70737 | 34096 ft | 391 kts | 264° |
| 2026-05-07 13:17 | 39.16421 | -95.77658 | 34101 ft | 391 kts | 264° |
| 2026-05-07 13:18 | 39.15582 | -95.84545 | 34104 ft | 391 kts | 264° |
| 2026-05-07 13:18 | 39.14729 | -95.91518 | 34099 ft | 391 kts | 264° |
| 2026-05-07 13:19 | 39.13883 | -95.98393 | 34096 ft | 391 kts | 264° |
| 2026-05-07 13:19 | 39.13029 | -96.05314 | 34091 ft | 391 kts | 264° |
| 2026-05-07 13:20 | 39.12168 | -96.12227 | 34088 ft | 391 kts | 264° |
| 2026-05-07 13:20 | 39.11310 | -96.19137 | 34090 ft | 391 kts | 264° |
| 2026-05-07 13:21 | 39.10584 | -96.24931 | 34088 ft | 391 kts | 264° |
| 2026-05-07 13:21 | 39.09570 | -96.32963 | 34086 ft | 391 kts | 264° |
| 2026-05-07 13:22 | 39.08835 | -96.38760 | 34090 ft | 391 kts | 263° |
| 2026-05-07 13:22 | 39.07961 | -96.45677 | 34088 ft | 391 kts | 263° |
| 2026-05-07 13:23 | 39.07082 | -96.52588 | 34091 ft | 392 kts | 263° |
| 2026-05-07 13:23 | 39.06192 | -96.59507 | 34090 ft | 392 kts | 263° |
| 2026-05-07 13:24 | 39.05300 | -96.66430 | 34093 ft | 392 kts | 263° |